Terminal Aerodrome Forecast
Issued by NWS New Orleans/Baton Rouge, LA

Home | Current Version | Previous Version | Text Only | Print | Product List | Glossary On
Versions: 1 2 3 4 5 6 7 8 9 10 11 12 13 14 15
000
FTUS44 KLIX 291737
TAFNEW
TAF
KNEW 291737Z 2918/3018 03006KT P6SM FEW035 SCT250
     FM292300 16004KT P6SM FEW040 SCT250
     FM300400 22005KT P6SM SCT250
     FM300900 28006KT P6SM FEW090 SCT250=

USA.gov is the U.S. government's official web portal to all federal, state and local government web resources and services.